Round Hill, Nevada
Current Conditions -  °F | °C
As of 5:53 AM on Sunday 25 Jan 2015 (Local Time) from KTVL Reporting Station
Clear Clear  
Wind Chill: 28°   Ceiling: Unl
Heat Index: 33°   Visibility: 10mi
Dew Point: 23°   Wind: 6mph
Humidity: 66%   Direction: 200°SSW
Pressure: 30.38"   Gusts: NA
Location:  39.0164°N, 119.925°W
Report Text: KTVL 251353Z AUTO 20005KT 10SM CLR 01/M05 A3038 RMK AO2 SLP270 T00061050
Loading
Personal Weather Stations






























Interactive Weather Map New forecast layout! Learn more

10-Day Weather Forecast

Advertisements
Track Severe Weather on mobile